sensor_id;sensor_type;location;lat;lon;timestamp;P1;durP1;ratioP1;P2;durP2;ratioP2
24631;SDS011;59977;48.782;9.190;2022-11-12T00:00:52;21.80;;;12.23;;
24631;SDS011;59977;48.782;9.190;2022-11-12T00:03:18;25.08;;;12.13;;
24631;SDS011;59977;48.782;9.190;2022-11-12T00:05:44;20.98;;;11.88;;
24631;SDS011;59977;48.782;9.190;2022-11-12T00:08:10;23.33;;;12.30;;
24631;SDS011;59977;48.782;9.190;2022-11-12T00:10:36;25.95;;;12.65;;
24631;SDS011;59977;48.782;9.190;2022-11-12T00:13:02;20.40;;;12.02;;
24631;SDS011;59977;48.782;9.190;2022-11-12T00:15:28;29.05;;;13.43;;
24631;SDS011;59977;48.782;9.190;2022-11-12T21:35:04;23.35;;;15.10;;
24631;SDS011;59977;48.782;9.190;2022-11-12T21:37:29;31.00;;;16.52;;
24631;SDS011;59977;48.782;9.190;2022-11-12T21:39:55;23.92;;;15.32;;
24631;SDS011;59977;48.782;9.190;2022-11-12T21:42:21;24.60;;;15.43;;
24631;SDS011;59977;48.782;9.190;2022-11-12T21:44:46;30.83;;;14.48;;
24631;SDS011;59977;48.782;9.190;2022-11-12T21:47:12;25.58;;;15.00;;
24631;SDS011;59977;48.782;9.190;2022-11-12T21:49:37;26.83;;;14.85;;
24631;SDS011;59977;48.782;9.190;2022-11-12T21:52:03;29.83;;;17.98;;
24631;SDS011;59977;48.782;9.190;2022-11-12T21:54:29;29.85;;;15.65;;
24631;SDS011;59977;48.782;9.190;2022-11-12T21:56:54;27.73;;;14.85;;
24631;SDS011;59977;48.782;9.190;2022-11-12T21:59:20;32.55;;;15.43;;
24631;SDS011;59977;48.782;9.190;2022-11-12T22:01:45;28.92;;;15.13;;
24631;SDS011;59977;48.782;9.190;2022-11-12T22:04:11;29.17;;;16.83;;
24631;SDS011;59977;48.782;9.190;2022-11-12T22:06:36;35.05;;;17.00;;
24631;SDS011;59977;48.782;9.190;2022-11-12T22:09:02;26.92;;;17.52;;
24631;SDS011;59977;48.782;9.190;2022-11-12T22:11:29;34.35;;;18.30;;
24631;SDS011;59977;48.782;9.190;2022-11-12T22:13:55;33.25;;;19.40;;
24631;SDS011;59977;48.782;9.190;2022-11-12T22:16:24;38.22;;;18.90;;
24631;SDS011;59977;48.782;9.190;2022-11-12T22:18:54;33.95;;;19.05;;
24631;SDS011;59977;48.782;9.190;2022-11-12T22:21:24;39.30;;;19.13;;
24631;SDS011;59977;48.782;9.190;2022-11-12T22:26:19;34.72;;;18.45;;
24631;SDS011;59977;48.782;9.190;2022-11-12T22:28:47;31.92;;;19.30;;
24631;SDS011;59977;48.782;9.190;2022-11-12T22:31:13;35.60;;;19.17;;
24631;SDS011;59977;48.782;9.190;2022-11-12T22:33:41;32.15;;;19.05;;
24631;SDS011;59977;48.782;9.190;2022-11-12T22:36:08;29.50;;;17.70;;
24631;SDS011;59977;48.782;9.190;2022-11-12T22:38:36;30.63;;;17.58;;
24631;SDS011;59977;48.782;9.190;2022-11-12T22:41:07;29.17;;;17.98;;
24631;SDS011;59977;48.782;9.190;2022-11-12T22:43:38;33.97;;;18.55;;
24631;SDS011;59977;48.782;9.190;2022-11-12T22:46:05;34.10;;;18.20;;
24631;SDS011;59977;48.782;9.190;2022-11-12T22:48:33;31.90;;;18.60;;
24631;SDS011;59977;48.782;9.190;2022-11-12T22:50:59;36.78;;;18.67;;
24631;SDS011;59977;48.782;9.190;2022-11-12T22:53:26;31.98;;;18.38;;
24631;SDS011;59977;48.782;9.190;2022-11-12T22:55:52;31.70;;;18.45;;
24631;SDS011;59977;48.782;9.190;2022-11-12T22:58:17;31.00;;;18.27;;
24631;SDS011;59977;48.782;9.190;2022-11-12T23:00:43;32.33;;;18.02;;
24631;SDS011;59977;48.782;9.190;2022-11-12T23:03:09;32.55;;;18.60;;
24631;SDS011;59977;48.782;9.190;2022-11-12T23:05:35;33.80;;;18.73;;
24631;SDS011;59977;48.782;9.190;2022-11-12T23:08:01;33.85;;;17.90;;
24631;SDS011;59977;48.782;9.190;2022-11-12T23:10:27;30.40;;;18.50;;
24631;SDS011;59977;48.782;9.190;2022-11-12T23:12:53;33.47;;;18.65;;
24631;SDS011;59977;48.782;9.190;2022-11-12T23:15:19;31.77;;;18.38;;
24631;SDS011;59977;48.782;9.190;2022-11-12T23:17:45;32.05;;;19.13;;
24631;SDS011;59977;48.782;9.190;2022-11-12T23:20:10;34.25;;;19.55;;
24631;SDS011;59977;48.782;9.190;2022-11-12T23:22:36;64.57;;;21.63;;
24631;SDS011;59977;48.782;9.190;2022-11-12T23:25:02;35.88;;;19.13;;
24631;SDS011;59977;48.782;9.190;2022-11-12T23:27:27;34.10;;;18.83;;
24631;SDS011;59977;48.782;9.190;2022-11-12T23:29:53;34.15;;;17.45;;
24631;SDS011;59977;48.782;9.190;2022-11-12T23:32:19;44.40;;;18.92;;
24631;SDS011;59977;48.782;9.190;2022-11-12T23:34:44;34.67;;;17.17;;
24631;SDS011;59977;48.782;9.190;2022-11-12T23:37:10;33.55;;;17.25;;
24631;SDS011;59977;48.782;9.190;2022-11-12T23:39:35;32.60;;;18.95;;
24631;SDS011;59977;48.782;9.190;2022-11-12T23:42:01;31.95;;;19.02;;
24631;SDS011;59977;48.782;9.190;2022-11-12T23:44:26;30.85;;;18.83;;
24631;SDS011;59977;48.782;9.190;2022-11-12T23:46:52;38.35;;;19.17;;
24631;SDS011;59977;48.782;9.190;2022-11-12T23:49:17;33.13;;;18.02;;
24631;SDS011;59977;48.782;9.190;2022-11-12T23:51:43;28.83;;;17.15;;
24631;SDS011;59977;48.782;9.190;2022-11-12T23:54:09;33.60;;;18.25;;
24631;SDS011;59977;48.782;9.190;2022-11-12T23:56:38;32.75;;;16.38;;
24631;SDS011;59977;48.782;9.190;2022-11-12T23:59:04;24.23;;;14.25;;
